sensor_id;sensor_type;location;lat;lon;timestamp;P1;durP1;ratioP1;P2;durP2;ratioP2
20870;SDS011;10595;51.218;3.452;2023-03-01T00:01:38;15.17;;;8.83;;
20870;SDS011;10595;51.218;3.452;2023-03-01T00:04:05;11.93;;;8.90;;
20870;SDS011;10595;51.218;3.452;2023-03-01T00:06:31;13.40;;;8.97;;
20870;SDS011;10595;51.218;3.452;2023-03-01T00:08:57;15.40;;;9.07;;
20870;SDS011;10595;51.218;3.452;2023-03-01T00:11:24;12.20;;;8.67;;
20870;SDS011;10595;51.218;3.452;2023-03-01T00:13:51;15.80;;;9.13;;
20870;SDS011;10595;51.218;3.452;2023-03-01T00:16:22;16.50;;;11.27;;
20870;SDS011;10595;51.218;3.452;2023-03-01T00:18:48;13.80;;;10.07;;
20870;SDS011;10595;51.218;3.452;2023-03-01T00:21:15;16.70;;;10.40;;
20870;SDS011;10595;51.218;3.452;2023-03-01T00:23:42;16.00;;;10.50;;
20870;SDS011;10595;51.218;3.452;2023-03-01T00:26:09;17.07;;;11.80;;
20870;SDS011;10595;51.218;3.452;2023-03-01T00:28:36;22.37;;;11.87;;
20870;SDS011;10595;51.218;3.452;2023-03-01T00:31:03;16.80;;;11.20;;
20870;SDS011;10595;51.218;3.452;2023-03-01T00:33:29;14.57;;;10.53;;
20870;SDS011;10595;51.218;3.452;2023-03-01T00:35:57;14.30;;;9.97;;
20870;SDS011;10595;51.218;3.452;2023-03-01T00:38:23;14.73;;;10.47;;
20870;SDS011;10595;51.218;3.452;2023-03-01T00:40:49;37.37;;;15.87;;
20870;SDS011;10595;51.218;3.452;2023-03-01T00:43:15;32.20;;;15.43;;
20870;SDS011;10595;51.218;3.452;2023-03-01T00:45:41;48.27;;;19.90;;
20870;SDS011;10595;51.218;3.452;2023-03-01T00:48:07;33.73;;;15.30;;
20870;SDS011;10595;51.218;3.452;2023-03-01T00:50:33;22.90;;;13.77;;
20870;SDS011;10595;51.218;3.452;2023-03-01T00:53:00;33.87;;;17.33;;
20870;SDS011;10595;51.218;3.452;2023-03-01T00:55:28;38.90;;;21.33;;
20870;SDS011;10595;51.218;3.452;2023-03-01T00:57:54;30.93;;;18.83;;
20870;SDS011;10595;51.218;3.452;2023-03-01T01:00:20;26.07;;;18.07;;
20870;SDS011;10595;51.218;3.452;2023-03-01T01:02:46;24.67;;;16.27;;
20870;SDS011;10595;51.218;3.452;2023-03-01T01:05:12;25.07;;;16.57;;
20870;SDS011;10595;51.218;3.452;2023-03-01T01:07:38;22.83;;;16.03;;
20870;SDS011;10595;51.218;3.452;2023-03-01T01:10:05;20.20;;;14.20;;
20870;SDS011;10595;51.218;3.452;2023-03-01T01:12:32;22.10;;;14.07;;
20870;SDS011;10595;51.218;3.452;2023-03-01T01:14:58;45.93;;;18.43;;
20870;SDS011;10595;51.218;3.452;2023-03-01T01:17:24;20.70;;;12.27;;
20870;SDS011;10595;51.218;3.452;2023-03-01T01:19:50;41.33;;;17.07;;
20870;SDS011;10595;51.218;3.452;2023-03-01T01:22:16;62.67;;;23.20;;
20870;SDS011;10595;51.218;3.452;2023-03-01T01:24:43;95.77;;;29.03;;
20870;SDS011;10595;51.218;3.452;2023-03-01T01:27:10;87.93;;;29.43;;
20870;SDS011;10595;51.218;3.452;2023-03-01T01:29:36;26.73;;;14.57;;
20870;SDS011;10595;51.218;3.452;2023-03-01T01:32:02;22.07;;;14.33;;
20870;SDS011;10595;51.218;3.452;2023-03-01T01:34:29;16.90;;;12.80;;
20870;SDS011;10595;51.218;3.452;2023-03-01T01:36:55;19.77;;;13.30;;
20870;SDS011;10595;51.218;3.452;2023-03-01T01:39:21;19.07;;;12.80;;
20870;SDS011;10595;51.218;3.452;2023-03-01T01:41:47;24.83;;;13.17;;
20870;SDS011;10595;51.218;3.452;2023-03-01T01:49:28;20.17;;;13.83;;
20870;SDS011;10595;51.218;3.452;2023-03-01T01:52:00;20.73;;;14.00;;
20870;SDS011;10595;51.218;3.452;2023-03-01T01:54:28;18.57;;;13.73;;
20870;SDS011;10595;51.218;3.452;2023-03-01T01:56:58;24.73;;;14.47;;
20870;SDS011;10595;51.218;3.452;2023-03-01T01:59:26;22.40;;;15.23;;
20870;SDS011;10595;51.218;3.452;2023-03-01T02:01:53;21.97;;;14.63;;
20870;SDS011;10595;51.218;3.452;2023-03-01T02:04:20;20.47;;;15.10;;
20870;SDS011;10595;51.218;3.452;2023-03-01T02:06:51;23.33;;;15.00;;
20870;SDS011;10595;51.218;3.452;2023-03-01T02:09:18;21.50;;;14.60;;
20870;SDS011;10595;51.218;3.452;2023-03-01T02:11:46;21.13;;;15.20;;
20870;SDS011;10595;51.218;3.452;2023-03-01T02:14:12;21.10;;;14.70;;
20870;SDS011;10595;51.218;3.452;2023-03-01T02:16:39;27.87;;;16.70;;
20870;SDS011;10595;51.218;3.452;2023-03-01T02:19:06;22.90;;;15.67;;
20870;SDS011;10595;51.218;3.452;2023-03-01T02:24:01;23.10;;;15.17;;
20870;SDS011;10595;51.218;3.452;2023-03-01T02:28:56;21.80;;;15.00;;
20870;SDS011;10595;51.218;3.452;2023-03-01T02:31:23;20.70;;;14.43;;
20870;SDS011;10595;51.218;3.452;2023-03-01T02:34:11;22.57;;;14.97;;
20870;SDS011;10595;51.218;3.452;2023-03-01T02:36:39;20.77;;;13.97;;
20870;SDS011;10595;51.218;3.452;2023-03-01T02:39:06;22.00;;;14.33;;
20870;SDS011;10595;51.218;3.452;2023-03-01T02:41:36;22.70;;;14.37;;
20870;SDS011;10595;51.218;3.452;2023-03-01T02:44:03;23.03;;;14.30;;
20870;SDS011;10595;51.218;3.452;2023-03-01T02:46:29;21.27;;;14.60;;
20870;SDS011;10595;51.218;3.452;2023-03-01T02:48:57;21.67;;;14.47;;
20870;SDS011;10595;51.218;3.452;2023-03-01T02:56:18;18.73;;;13.80;;
20870;SDS011;10595;51.218;3.452;2023-03-01T02:58:44;20.90;;;14.70;;
20870;SDS011;10595;51.218;3.452;2023-03-01T03:01:13;22.03;;;14.80;;
20870;SDS011;10595;51.218;3.452;2023-03-01T03:03:41;19.53;;;13.60;;
20870;SDS011;10595;51.218;3.452;2023-03-01T03:06:07;20.93;;;14.70;;
20870;SDS011;10595;51.218;3.452;2023-03-01T03:08:33;24.23;;;14.87;;
20870;SDS011;10595;51.218;3.452;2023-03-01T03:10:59;23.23;;;15.00;;
20870;SDS011;10595;51.218;3.452;2023-03-01T03:13:26;23.87;;;14.97;;
20870;SDS011;10595;51.218;3.452;2023-03-01T03:15:53;24.67;;;14.77;;
20870;SDS011;10595;51.218;3.452;2023-03-01T03:18:20;18.80;;;14.57;;
20870;SDS011;10595;51.218;3.452;2023-03-01T03:20:46;24.63;;;15.27;;
20870;SDS011;10595;51.218;3.452;2023-03-01T03:23:14;25.37;;;15.73;;
20870;SDS011;10595;51.218;3.452;2023-03-01T03:25:40;22.83;;;15.23;;
20870;SDS011;10595;51.218;3.452;2023-03-01T03:28:06;20.90;;;14.27;;
20870;SDS011;10595;51.218;3.452;2023-03-01T03:30:36;22.50;;;15.57;;
20870;SDS011;10595;51.218;3.452;2023-03-01T03:33:04;23.87;;;15.30;;
20870;SDS011;10595;51.218;3.452;2023-03-01T03:35:41;23.13;;;15.27;;
20870;SDS011;10595;51.218;3.452;2023-03-01T03:38:11;25.07;;;16.37;;
20870;SDS011;10595;51.218;3.452;2023-03-01T03:40:49;24.80;;;16.50;;
20870;SDS011;10595;51.218;3.452;2023-03-01T03:43:18;23.07;;;15.30;;
20870;SDS011;10595;51.218;3.452;2023-03-01T03:45:47;27.93;;;15.80;;
20870;SDS011;10595;51.218;3.452;2023-03-01T03:48:14;28.00;;;17.73;;
20870;SDS011;10595;51.218;3.452;2023-03-01T03:50:46;26.40;;;16.27;;
20870;SDS011;10595;51.218;3.452;2023-03-01T03:53:13;28.70;;;17.10;;
20870;SDS011;10595;51.218;3.452;2023-03-01T03:55:39;25.00;;;16.70;;
20870;SDS011;10595;51.218;3.452;2023-03-01T03:58:06;28.17;;;16.57;;
20870;SDS011;10595;51.218;3.452;2023-03-01T04:00:33;27.53;;;16.33;;
20870;SDS011;10595;51.218;3.452;2023-03-01T04:03:00;21.93;;;15.67;;
20870;SDS011;10595;51.218;3.452;2023-03-01T04:05:26;23.13;;;15.70;;
20870;SDS011;10595;51.218;3.452;2023-03-01T04:07:52;24.50;;;16.17;;
20870;SDS011;10595;51.218;3.452;2023-03-01T04:10:26;27.20;;;16.37;;
20870;SDS011;10595;51.218;3.452;2023-03-01T04:12:52;23.27;;;15.97;;
20870;SDS011;10595;51.218;3.452;2023-03-01T04:15:21;29.07;;;15.63;;
20870;SDS011;10595;51.218;3.452;2023-03-01T04:17:49;28.67;;;15.67;;
20870;SDS011;10595;51.218;3.452;2023-03-01T04:20:17;23.63;;;15.80;;
20870;SDS011;10595;51.218;3.452;2023-03-01T04:22:49;23.57;;;16.23;;
20870;SDS011;10595;51.218;3.452;2023-03-01T04:25:16;23.93;;;15.03;;
20870;SDS011;10595;51.218;3.452;2023-03-01T04:27:42;27.13;;;15.93;;
20870;SDS011;10595;51.218;3.452;2023-03-01T04:30:08;25.07;;;16.23;;
20870;SDS011;10595;51.218;3.452;2023-03-01T04:32:34;26.60;;;15.53;;
20870;SDS011;10595;51.218;3.452;2023-03-01T04:35:00;23.77;;;15.70;;
20870;SDS011;10595;51.218;3.452;2023-03-01T04:37:27;24.73;;;15.17;;
20870;SDS011;10595;51.218;3.452;2023-03-01T04:39:54;20.53;;;13.77;;
20870;SDS011;10595;51.218;3.452;2023-03-01T04:42:20;25.60;;;14.47;;
20870;SDS011;10595;51.218;3.452;2023-03-01T04:44:46;25.77;;;15.30;;
20870;SDS011;10595;51.218;3.452;2023-03-01T04:47:12;22.17;;;14.07;;
20870;SDS011;10595;51.218;3.452;2023-03-01T04:49:38;22.10;;;14.13;;
20870;SDS011;10595;51.218;3.452;2023-03-01T04:52:04;25.43;;;13.73;;
20870;SDS011;10595;51.218;3.452;2023-03-01T04:54:31;20.17;;;14.20;;
20870;SDS011;10595;51.218;3.452;2023-03-01T04:56:57;23.37;;;13.40;;
20870;SDS011;10595;51.218;3.452;2023-03-01T04:59:23;22.63;;;14.27;;
20870;SDS011;10595;51.218;3.452;2023-03-01T05:01:53;21.87;;;14.33;;
20870;SDS011;10595;51.218;3.452;2023-03-01T05:04:23;23.50;;;13.53;;
20870;SDS011;10595;51.218;3.452;2023-03-01T05:06:49;20.30;;;13.33;;
20870;SDS011;10595;51.218;3.452;2023-03-01T05:09:15;20.43;;;13.57;;
20870;SDS011;10595;51.218;3.452;2023-03-01T05:11:42;23.80;;;13.67;;
20870;SDS011;10595;51.218;3.452;2023-03-01T05:14:08;24.40;;;14.67;;
20870;SDS011;10595;51.218;3.452;2023-03-01T05:16:35;24.43;;;14.97;;
20870;SDS011;10595;51.218;3.452;2023-03-01T05:19:02;20.80;;;14.13;;
20870;SDS011;10595;51.218;3.452;2023-03-01T05:21:37;22.80;;;14.40;;
20870;SDS011;10595;51.218;3.452;2023-03-01T05:24:26;22.27;;;13.87;;
20870;SDS011;10595;51.218;3.452;2023-03-01T05:26:52;22.40;;;14.37;;
20870;SDS011;10595;51.218;3.452;2023-03-01T05:29:19;21.13;;;13.53;;
20870;SDS011;10595;51.218;3.452;2023-03-01T05:31:51;56.23;;;26.90;;
20870;SDS011;10595;51.218;3.452;2023-03-01T05:34:18;68.27;;;29.23;;
20870;SDS011;10595;51.218;3.452;2023-03-01T05:36:47;100.67;;;39.70;;
20870;SDS011;10595;51.218;3.452;2023-03-01T05:39:16;83.50;;;34.53;;
20870;SDS011;10595;51.218;3.452;2023-03-01T05:41:42;34.00;;;20.50;;
20870;SDS011;10595;51.218;3.452;2023-03-01T05:44:08;24.43;;;15.63;;
20870;SDS011;10595;51.218;3.452;2023-03-01T05:46:34;21.87;;;14.27;;
20870;SDS011;10595;51.218;3.452;2023-03-01T05:49:00;23.07;;;13.83;;
20870;SDS011;10595;51.218;3.452;2023-03-01T05:51:27;21.13;;;14.13;;
20870;SDS011;10595;51.218;3.452;2023-03-01T05:53:53;24.53;;;13.87;;
20870;SDS011;10595;51.218;3.452;2023-03-01T05:56:19;20.93;;;12.43;;
20870;SDS011;10595;51.218;3.452;2023-03-01T05:58:47;24.17;;;15.33;;
20870;SDS011;10595;51.218;3.452;2023-03-01T06:01:20;23.33;;;14.23;;
20870;SDS011;10595;51.218;3.452;2023-03-01T06:03:46;22.13;;;13.30;;
20870;SDS011;10595;51.218;3.452;2023-03-01T06:06:12;22.07;;;13.33;;
20870;SDS011;10595;51.218;3.452;2023-03-01T06:08:38;19.43;;;13.23;;
20870;SDS011;10595;51.218;3.452;2023-03-01T06:11:04;20.63;;;12.77;;
20870;SDS011;10595;51.218;3.452;2023-03-01T06:13:30;21.80;;;13.67;;
20870;SDS011;10595;51.218;3.452;2023-03-01T06:15:56;22.33;;;13.97;;
20870;SDS011;10595;51.218;3.452;2023-03-01T06:18:22;23.07;;;13.67;;
20870;SDS011;10595;51.218;3.452;2023-03-01T06:20:52;23.70;;;12.57;;
20870;SDS011;10595;51.218;3.452;2023-03-01T06:23:18;26.87;;;14.17;;
20870;SDS011;10595;51.218;3.452;2023-03-01T06:25:44;26.27;;;15.07;;
20870;SDS011;10595;51.218;3.452;2023-03-01T06:28:10;38.67;;;20.63;;
20870;SDS011;10595;51.218;3.452;2023-03-01T06:30:36;25.87;;;16.53;;
20870;SDS011;10595;51.218;3.452;2023-03-01T06:33:02;23.23;;;16.10;;
20870;SDS011;10595;51.218;3.452;2023-03-01T06:35:28;23.43;;;14.60;;
20870;SDS011;10595;51.218;3.452;2023-03-01T06:37:55;19.23;;;11.83;;
20870;SDS011;10595;51.218;3.452;2023-03-01T06:40:23;22.53;;;13.13;;
20870;SDS011;10595;51.218;3.452;2023-03-01T06:43:03;17.33;;;11.53;;
20870;SDS011;10595;51.218;3.452;2023-03-01T06:45:30;19.87;;;12.20;;
20870;SDS011;10595;51.218;3.452;2023-03-01T06:48:03;19.80;;;11.17;;
20870;SDS011;10595;51.218;3.452;2023-03-01T06:50:29;17.87;;;11.47;;
20870;SDS011;10595;51.218;3.452;2023-03-01T06:52:56;15.30;;;10.33;;
20870;SDS011;10595;51.218;3.452;2023-03-01T06:55:22;17.30;;;10.97;;
20870;SDS011;10595;51.218;3.452;2023-03-01T06:57:48;18.47;;;9.53;;
20870;SDS011;10595;51.218;3.452;2023-03-01T07:00:14;16.97;;;10.30;;
20870;SDS011;10595;51.218;3.452;2023-03-01T07:02:41;20.17;;;9.67;;
20870;SDS011;10595;51.218;3.452;2023-03-01T07:05:07;14.87;;;9.10;;
20870;SDS011;10595;51.218;3.452;2023-03-01T07:07:33;16.43;;;9.70;;
20870;SDS011;10595;51.218;3.452;2023-03-01T07:09:59;18.70;;;9.93;;
20870;SDS011;10595;51.218;3.452;2023-03-01T07:12:26;15.43;;;8.87;;
20870;SDS011;10595;51.218;3.452;2023-03-01T07:14:52;16.03;;;8.57;;
20870;SDS011;10595;51.218;3.452;2023-03-01T07:17:18;13.40;;;8.50;;
20870;SDS011;10595;51.218;3.452;2023-03-01T07:19:44;18.90;;;9.03;;
20870;SDS011;10595;51.218;3.452;2023-03-01T07:22:10;15.13;;;8.10;;
20870;SDS011;10595;51.218;3.452;2023-03-01T07:24:36;12.80;;;7.87;;
20870;SDS011;10595;51.218;3.452;2023-03-01T07:27:02;13.63;;;8.77;;
20870;SDS011;10595;51.218;3.452;2023-03-01T07:29:28;15.20;;;9.27;;
20870;SDS011;10595;51.218;3.452;2023-03-01T07:31:54;16.40;;;8.67;;
20870;SDS011;10595;51.218;3.452;2023-03-01T07:34:21;13.90;;;8.33;;
20870;SDS011;10595;51.218;3.452;2023-03-01T07:36:47;12.77;;;7.50;;
20870;SDS011;10595;51.218;3.452;2023-03-01T07:39:13;10.93;;;7.70;;
20870;SDS011;10595;51.218;3.452;2023-03-01T07:41:39;12.30;;;7.73;;
20870;SDS011;10595;51.218;3.452;2023-03-01T07:44:05;12.77;;;7.80;;
20870;SDS011;10595;51.218;3.452;2023-03-01T07:46:31;14.90;;;9.27;;
20870;SDS011;10595;51.218;3.452;2023-03-01T07:48:57;12.10;;;8.17;;
20870;SDS011;10595;51.218;3.452;2023-03-01T07:51:23;13.40;;;8.50;;
20870;SDS011;10595;51.218;3.452;2023-03-01T07:53:49;15.57;;;9.10;;
20870;SDS011;10595;51.218;3.452;2023-03-01T07:56:16;13.10;;;8.27;;
20870;SDS011;10595;51.218;3.452;2023-03-01T07:58:43;17.33;;;9.20;;
20870;SDS011;10595;51.218;3.452;2023-03-01T08:01:11;11.73;;;8.37;;
20870;SDS011;10595;51.218;3.452;2023-03-01T08:03:38;13.53;;;8.10;;
20870;SDS011;10595;51.218;3.452;2023-03-01T08:06:04;15.17;;;7.70;;
20870;SDS011;10595;51.218;3.452;2023-03-01T08:08:31;12.70;;;7.90;;
20870;SDS011;10595;51.218;3.452;2023-03-01T08:10:58;13.13;;;7.30;;
20870;SDS011;10595;51.218;3.452;2023-03-01T08:13:26;11.37;;;7.30;;
20870;SDS011;10595;51.218;3.452;2023-03-01T08:15:53;12.37;;;7.77;;
20870;SDS011;10595;51.218;3.452;2023-03-01T08:18:19;12.17;;;7.23;;
20870;SDS011;10595;51.218;3.452;2023-03-01T08:20:46;9.80;;;7.27;;
20870;SDS011;10595;51.218;3.452;2023-03-01T08:23:12;13.10;;;7.80;;
20870;SDS011;10595;51.218;3.452;2023-03-01T08:25:38;11.07;;;6.87;;
20870;SDS011;10595;51.218;3.452;2023-03-01T08:28:04;11.60;;;6.80;;
20870;SDS011;10595;51.218;3.452;2023-03-01T08:30:31;10.80;;;7.17;;
20870;SDS011;10595;51.218;3.452;2023-03-01T08:32:57;9.80;;;6.03;;
20870;SDS011;10595;51.218;3.452;2023-03-01T08:35:23;7.60;;;5.77;;
20870;SDS011;10595;51.218;3.452;2023-03-01T08:37:49;9.30;;;7.03;;
20870;SDS011;10595;51.218;3.452;2023-03-01T08:40:15;10.83;;;6.80;;
20870;SDS011;10595;51.218;3.452;2023-03-01T08:42:41;8.73;;;5.67;;
20870;SDS011;10595;51.218;3.452;2023-03-01T08:45:08;8.67;;;6.03;;
20870;SDS011;10595;51.218;3.452;2023-03-01T08:47:34;8.73;;;6.00;;
20870;SDS011;10595;51.218;3.452;2023-03-01T08:50:00;9.53;;;6.13;;
20870;SDS011;10595;51.218;3.452;2023-03-01T08:52:26;11.40;;;6.07;;
20870;SDS011;10595;51.218;3.452;2023-03-01T08:54:52;8.97;;;6.10;;
20870;SDS011;10595;51.218;3.452;2023-03-01T08:57:18;9.40;;;6.37;;
20870;SDS011;10595;51.218;3.452;2023-03-01T08:59:45;9.90;;;6.10;;
20870;SDS011;10595;51.218;3.452;2023-03-01T09:02:12;8.50;;;6.37;;
20870;SDS011;10595;51.218;3.452;2023-03-01T09:04:39;9.10;;;6.33;;
20870;SDS011;10595;51.218;3.452;2023-03-01T09:07:05;10.17;;;6.43;;
20870;SDS011;10595;51.218;3.452;2023-03-01T09:09:32;15.50;;;6.87;;
20870;SDS011;10595;51.218;3.452;2023-03-01T09:11:58;8.73;;;6.40;;
20870;SDS011;10595;51.218;3.452;2023-03-01T09:14:24;11.30;;;6.63;;
20870;SDS011;10595;51.218;3.452;2023-03-01T09:16:50;12.90;;;7.57;;
20870;SDS011;10595;51.218;3.452;2023-03-01T09:19:16;11.97;;;8.00;;
20870;SDS011;10595;51.218;3.452;2023-03-01T09:21:44;10.83;;;6.63;;
20870;SDS011;10595;51.218;3.452;2023-03-01T09:24:17;10.47;;;6.37;;
20870;SDS011;10595;51.218;3.452;2023-03-01T09:26:43;11.60;;;6.83;;
20870;SDS011;10595;51.218;3.452;2023-03-01T09:29:11;12.37;;;6.10;;
20870;SDS011;10595;51.218;3.452;2023-03-01T09:31:38;9.20;;;6.20;;
20870;SDS011;10595;51.218;3.452;2023-03-01T09:34:04;8.27;;;6.20;;
20870;SDS011;10595;51.218;3.452;2023-03-01T09:36:31;9.37;;;6.60;;
20870;SDS011;10595;51.218;3.452;2023-03-01T09:38:57;9.57;;;6.70;;
20870;SDS011;10595;51.218;3.452;2023-03-01T09:44:01;11.83;;;6.70;;
20870;SDS011;10595;51.218;3.452;2023-03-01T09:46:29;9.13;;;6.30;;
20870;SDS011;10595;51.218;3.452;2023-03-01T09:49:01;13.80;;;6.70;;
20870;SDS011;10595;51.218;3.452;2023-03-01T09:51:29;12.63;;;7.40;;
20870;SDS011;10595;51.218;3.452;2023-03-01T09:53:56;14.37;;;8.40;;
20870;SDS011;10595;51.218;3.452;2023-03-01T09:56:32;12.57;;;7.10;;
20870;SDS011;10595;51.218;3.452;2023-03-01T09:59:07;10.23;;;6.33;;
20870;SDS011;10595;51.218;3.452;2023-03-01T10:01:36;11.43;;;6.57;;
20870;SDS011;10595;51.218;3.452;2023-03-01T10:06:57;12.73;;;6.10;;
20870;SDS011;10595;51.218;3.452;2023-03-01T10:09:24;9.70;;;6.27;;
20870;SDS011;10595;51.218;3.452;2023-03-01T10:11:52;8.43;;;5.50;;
20870;SDS011;10595;51.218;3.452;2023-03-01T10:16:52;67.23;;;15.07;;
20870;SDS011;10595;51.218;3.452;2023-03-01T10:19:24;9.30;;;5.10;;
20870;SDS011;10595;51.218;3.452;2023-03-01T10:21:52;6.77;;;4.93;;
20870;SDS011;10595;51.218;3.452;2023-03-01T10:24:19;7.50;;;4.90;;
20870;SDS011;10595;51.218;3.452;2023-03-01T10:29:18;10.07;;;5.57;;
20870;SDS011;10595;51.218;3.452;2023-03-01T10:31:47;8.80;;;6.00;;
20870;SDS011;10595;51.218;3.452;2023-03-01T10:34:21;9.83;;;5.30;;
20870;SDS011;10595;51.218;3.452;2023-03-01T10:36:49;8.50;;;5.00;;
20870;SDS011;10595;51.218;3.452;2023-03-01T10:39:19;6.13;;;4.30;;
20870;SDS011;10595;51.218;3.452;2023-03-01T10:44:34;9.40;;;5.27;;
20870;SDS011;10595;51.218;3.452;2023-03-01T10:47:00;9.17;;;5.50;;
20870;SDS011;10595;51.218;3.452;2023-03-01T10:49:26;10.77;;;5.23;;
20870;SDS011;10595;51.218;3.452;2023-03-01T10:51:53;8.03;;;5.37;;
20870;SDS011;10595;51.218;3.452;2023-03-01T10:57:10;6.33;;;4.07;;
20870;SDS011;10595;51.218;3.452;2023-03-01T10:59:48;5.87;;;4.40;;
20870;SDS011;10595;51.218;3.452;2023-03-01T11:02:29;6.03;;;4.13;;
20870;SDS011;10595;51.218;3.452;2023-03-01T11:07:52;6.60;;;3.97;;
20870;SDS011;10595;51.218;3.452;2023-03-01T11:10:25;4.80;;;3.87;;
20870;SDS011;10595;51.218;3.452;2023-03-01T11:12:52;6.57;;;4.20;;
20870;SDS011;10595;51.218;3.452;2023-03-01T11:15:25;8.13;;;5.10;;
20870;SDS011;10595;51.218;3.452;2023-03-01T11:17:51;10.23;;;4.67;;
20870;SDS011;10595;51.218;3.452;2023-03-01T11:20:32;6.03;;;4.03;;
20870;SDS011;10595;51.218;3.452;2023-03-01T11:23:05;7.00;;;4.20;;
20870;SDS011;10595;51.218;3.452;2023-03-01T11:25:37;8.37;;;4.60;;
20870;SDS011;10595;51.218;3.452;2023-03-01T11:28:04;9.23;;;4.70;;
20870;SDS011;10595;51.218;3.452;2023-03-01T11:30:32;5.37;;;3.73;;
20870;SDS011;10595;51.218;3.452;2023-03-01T11:33:04;5.07;;;4.03;;
20870;SDS011;10595;51.218;3.452;2023-03-01T11:35:31;6.57;;;4.53;;
20870;SDS011;10595;51.218;3.452;2023-03-01T11:40:32;13.53;;;5.07;;
20870;SDS011;10595;51.218;3.452;2023-03-01T11:45:31;7.53;;;4.57;;
20870;SDS011;10595;51.218;3.452;2023-03-01T11:50:47;7.97;;;4.67;;
20870;SDS011;10595;51.218;3.452;2023-03-01T12:08:35;8.47;;;5.67;;
20870;SDS011;10595;51.218;3.452;2023-03-01T12:11:08;8.57;;;5.30;;
20870;SDS011;10595;51.218;3.452;2023-03-01T12:13:45;10.30;;;5.33;;
20870;SDS011;10595;51.218;3.452;2023-03-01T12:21:30;8.80;;;6.00;;
20870;SDS011;10595;51.218;3.452;2023-03-01T12:37:29;8.57;;;6.13;;
20870;SDS011;10595;51.218;3.452;2023-03-01T12:49:58;14.43;;;7.20;;
20870;SDS011;10595;51.218;3.452;2023-03-01T12:52:35;13.33;;;6.83;;
20870;SDS011;10595;51.218;3.452;2023-03-01T12:55:02;6.60;;;4.30;;
20870;SDS011;10595;51.218;3.452;2023-03-01T12:57:34;8.07;;;5.10;;
20870;SDS011;10595;51.218;3.452;2023-03-01T13:02:39;7.33;;;5.63;;
20870;SDS011;10595;51.218;3.452;2023-03-01T13:07:37;6.57;;;4.87;;
20870;SDS011;10595;51.218;3.452;2023-03-01T13:20:15;6.60;;;4.90;;
20870;SDS011;10595;51.218;3.452;2023-03-01T13:22:42;7.37;;;5.17;;
20870;SDS011;10595;51.218;3.452;2023-03-01T13:25:27;5.83;;;4.93;;
20870;SDS011;10595;51.218;3.452;2023-03-01T13:27:53;7.47;;;5.30;;
20870;SDS011;10595;51.218;3.452;2023-03-01T13:30:39;26.83;;;6.83;;
20870;SDS011;10595;51.218;3.452;2023-03-01T13:33:51;9.80;;;6.13;;
20870;SDS011;10595;51.218;3.452;2023-03-01T13:35:53;11.30;;;7.13;;
20870;SDS011;10595;51.218;3.452;2023-03-01T13:38:39;9.77;;;6.17;;
20870;SDS011;10595;51.218;3.452;2023-03-01T13:41:11;8.20;;;5.60;;
20870;SDS011;10595;51.218;3.452;2023-03-01T13:43:38;13.23;;;5.80;;
20870;SDS011;10595;51.218;3.452;2023-03-01T13:46:11;6.70;;;4.83;;
20870;SDS011;10595;51.218;3.452;2023-03-01T13:48:38;14.70;;;8.30;;
20870;SDS011;10595;51.218;3.452;2023-03-01T13:51:07;10.10;;;6.47;;
20870;SDS011;10595;51.218;3.452;2023-03-01T13:53:35;7.47;;;5.50;;
20870;SDS011;10595;51.218;3.452;2023-03-01T13:56:06;7.93;;;5.83;;
20870;SDS011;10595;51.218;3.452;2023-03-01T13:58:33;11.40;;;7.00;;
20870;SDS011;10595;51.218;3.452;2023-03-01T14:04:18;8.03;;;5.20;;
20870;SDS011;10595;51.218;3.452;2023-03-01T14:06:45;12.10;;;6.75;;
20870;SDS011;10595;51.218;3.452;2023-03-01T14:09:16;8.93;;;5.30;;
20870;SDS011;10595;51.218;3.452;2023-03-01T14:19:17;12.17;;;6.13;;
20870;SDS011;10595;51.218;3.452;2023-03-01T14:21:45;8.47;;;5.07;;
20870;SDS011;10595;51.218;3.452;2023-03-01T14:24:18;10.47;;;5.10;;
20870;SDS011;10595;51.218;3.452;2023-03-01T14:26:45;6.87;;;4.90;;
20870;SDS011;10595;51.218;3.452;2023-03-01T14:32:01;9.33;;;5.83;;
20870;SDS011;10595;51.218;3.452;2023-03-01T14:34:33;11.57;;;7.57;;
20870;SDS011;10595;51.218;3.452;2023-03-01T14:37:09;10.57;;;5.80;;
20870;SDS011;10595;51.218;3.452;2023-03-01T14:39:35;15.80;;;7.53;;
20870;SDS011;10595;51.218;3.452;2023-03-01T14:42:03;14.13;;;8.13;;
20870;SDS011;10595;51.218;3.452;2023-03-01T14:44:31;13.03;;;8.60;;
20870;SDS011;10595;51.218;3.452;2023-03-01T14:46:59;12.00;;;8.47;;
20870;SDS011;10595;51.218;3.452;2023-03-01T14:49:28;10.17;;;6.83;;
20870;SDS011;10595;51.218;3.452;2023-03-01T14:54:23;9.63;;;6.20;;
20870;SDS011;10595;51.218;3.452;2023-03-01T14:56:50;10.33;;;5.67;;
20870;SDS011;10595;51.218;3.452;2023-03-01T14:59:19;32.33;;;12.60;;
20870;SDS011;10595;51.218;3.452;2023-03-01T15:01:45;7.77;;;5.33;;
20870;SDS011;10595;51.218;3.452;2023-03-01T15:04:12;7.80;;;5.10;;
20870;SDS011;10595;51.218;3.452;2023-03-01T15:06:38;10.97;;;5.23;;
20870;SDS011;10595;51.218;3.452;2023-03-01T15:09:05;7.70;;;5.07;;
20870;SDS011;10595;51.218;3.452;2023-03-01T15:11:31;12.30;;;4.77;;
20870;SDS011;10595;51.218;3.452;2023-03-01T15:13:58;12.07;;;4.97;;
20870;SDS011;10595;51.218;3.452;2023-03-01T15:16:24;6.00;;;4.50;;
20870;SDS011;10595;51.218;3.452;2023-03-01T15:18:55;7.13;;;5.00;;
20870;SDS011;10595;51.218;3.452;2023-03-01T15:21:23;7.63;;;5.30;;
20870;SDS011;10595;51.218;3.452;2023-03-01T15:23:50;6.33;;;4.43;;
20870;SDS011;10595;51.218;3.452;2023-03-01T15:26:21;5.97;;;4.20;;
20870;SDS011;10595;51.218;3.452;2023-03-01T15:28:52;6.07;;;4.60;;
20870;SDS011;10595;51.218;3.452;2023-03-01T15:31:23;6.97;;;4.83;;
20870;SDS011;10595;51.218;3.452;2023-03-01T15:33:50;7.93;;;5.00;;
20870;SDS011;10595;51.218;3.452;2023-03-01T15:39:02;8.07;;;4.70;;
20870;SDS011;10595;51.218;3.452;2023-03-01T15:41:29;7.93;;;5.20;;
20870;SDS011;10595;51.218;3.452;2023-03-01T15:43:59;8.47;;;4.57;;
20870;SDS011;10595;51.218;3.452;2023-03-01T15:46:30;5.87;;;4.77;;
20870;SDS011;10595;51.218;3.452;2023-03-01T15:49:01;6.97;;;4.87;;
20870;SDS011;10595;51.218;3.452;2023-03-01T15:51:34;6.83;;;4.60;;
20870;SDS011;10595;51.218;3.452;2023-03-01T15:54:03;7.80;;;4.93;;
20870;SDS011;10595;51.218;3.452;2023-03-01T15:56:29;7.50;;;5.03;;
20870;SDS011;10595;51.218;3.452;2023-03-01T15:58:59;8.90;;;5.07;;
20870;SDS011;10595;51.218;3.452;2023-03-01T16:01:25;7.80;;;5.70;;
20870;SDS011;10595;51.218;3.452;2023-03-01T16:03:51;6.70;;;5.30;;
20870;SDS011;10595;51.218;3.452;2023-03-01T16:06:19;7.80;;;5.30;;
20870;SDS011;10595;51.218;3.452;2023-03-01T16:08:45;7.10;;;5.23;;
20870;SDS011;10595;51.218;3.452;2023-03-01T16:11:16;7.90;;;5.47;;
20870;SDS011;10595;51.218;3.452;2023-03-01T16:13:42;10.03;;;5.10;;
20870;SDS011;10595;51.218;3.452;2023-03-01T16:16:09;8.17;;;5.43;;
20870;SDS011;10595;51.218;3.452;2023-03-01T16:18:37;9.40;;;5.00;;
20870;SDS011;10595;51.218;3.452;2023-03-01T16:21:03;9.77;;;5.50;;
20870;SDS011;10595;51.218;3.452;2023-03-01T16:23:30;8.73;;;5.57;;
20870;SDS011;10595;51.218;3.452;2023-03-01T16:25:59;7.93;;;5.37;;
20870;SDS011;10595;51.218;3.452;2023-03-01T16:28:25;10.97;;;6.00;;
20870;SDS011;10595;51.218;3.452;2023-03-01T16:30:52;22.73;;;9.43;;
20870;SDS011;10595;51.218;3.452;2023-03-01T16:33:18;14.27;;;6.90;;
20870;SDS011;10595;51.218;3.452;2023-03-01T16:35:44;9.47;;;5.30;;
20870;SDS011;10595;51.218;3.452;2023-03-01T16:38:10;8.67;;;5.50;;